sensor_id;sensor_type;location;lat;lon;timestamp;pressure;altitude;pressure_sealevel;temperature;humidity
57068;BME280;43391;47.448;18.904;2023-07-31T00:02:18;99426.81;;;18.02;100.00
57068;BME280;43391;47.448;18.904;2023-07-31T00:04:44;99427.91;;;18.00;100.00
57068;BME280;43391;47.448;18.904;2023-07-31T00:07:09;99422.66;;;18.00;100.00
57068;BME280;43391;47.448;18.904;2023-07-31T00:09:34;99422.41;;;18.03;100.00
57068;BME280;43391;47.448;18.904;2023-07-31T00:12:00;99420.59;;;18.03;100.00
57068;BME280;43391;47.448;18.904;2023-07-31T00:14:25;99414.66;;;18.01;100.00
57068;BME280;43391;47.448;18.904;2023-07-31T00:16:51;99421.56;;;18.02;100.00
57068;BME280;43391;47.448;18.904;2023-07-31T00:19:16;99429.44;;;18.02;100.00
57068;BME280;43391;47.448;18.904;2023-07-31T00:21:41;99425.16;;;18.01;100.00
57068;BME280;43391;47.448;18.904;2023-07-31T00:24:07;99429.84;;;17.98;100.00
57068;BME280;43391;47.448;18.904;2023-07-31T00:26:32;99433.28;;;17.98;100.00
57068;BME280;43391;47.448;18.904;2023-07-31T00:28:57;99432.34;;;17.99;100.00
57068;BME280;43391;47.448;18.904;2023-07-31T00:31:23;99434.13;;;17.99;100.00
57068;BME280;43391;47.448;18.904;2023-07-31T00:33:48;99437.84;;;17.96;100.00
57068;BME280;43391;47.448;18.904;2023-07-31T00:36:14;99438.38;;;17.90;100.00
57068;BME280;43391;47.448;18.904;2023-07-31T00:38:39;99439.91;;;17.92;100.00
57068;BME280;43391;47.448;18.904;2023-07-31T00:41:04;99441.56;;;17.93;100.00
57068;BME280;43391;47.448;18.904;2023-07-31T00:43:30;99434.91;;;17.89;100.00
57068;BME280;43391;47.448;18.904;2023-07-31T00:45:55;99440.44;;;17.86;100.00
57068;BME280;43391;47.448;18.904;2023-07-31T00:48:21;99444.25;;;17.82;100.00
57068;BME280;43391;47.448;18.904;2023-07-31T00:50:46;99447.13;;;17.79;100.00
57068;BME280;43391;47.448;18.904;2023-07-31T00:53:13;99442.59;;;17.81;100.00
57068;BME280;43391;47.448;18.904;2023-07-31T00:55:38;99438.94;;;17.72;100.00
57068;BME280;43391;47.448;18.904;2023-07-31T00:58:04;99434.53;;;17.73;100.00
57068;BME280;43391;47.448;18.904;2023-07-31T01:00:29;99438.00;;;17.73;100.00
57068;BME280;43391;47.448;18.904;2023-07-31T01:02:55;99436.31;;;17.72;100.00
57068;BME280;43391;47.448;18.904;2023-07-31T01:05:25;99443.25;;;17.73;100.00
57068;BME280;43391;47.448;18.904;2023-07-31T01:08:05;99441.44;;;17.74;100.00
57068;BME280;43391;47.448;18.904;2023-07-31T01:10:41;99446.00;;;17.72;100.00
57068;BME280;43391;47.448;18.904;2023-07-31T01:13:11;99448.03;;;17.68;100.00
57068;BME280;43391;47.448;18.904;2023-07-31T01:15:37;99452.84;;;17.63;100.00
57068;BME280;43391;47.448;18.904;2023-07-31T01:18:03;99463.34;;;17.63;100.00
57068;BME280;43391;47.448;18.904;2023-07-31T01:20:30;99468.72;;;17.61;100.00
57068;BME280;43391;47.448;18.904;2023-07-31T01:31:12;99454.91;;;17.48;100.00
57068;BME280;43391;47.448;18.904;2023-07-31T01:33:39;99457.22;;;17.41;100.00
57068;BME280;43391;47.448;18.904;2023-07-31T01:36:04;99445.91;;;17.40;100.00
57068;BME280;43391;47.448;18.904;2023-07-31T01:38:30;99437.44;;;17.37;100.00
57068;BME280;43391;47.448;18.904;2023-07-31T01:40:56;99436.03;;;17.33;100.00
57068;BME280;43391;47.448;18.904;2023-07-31T01:43:21;99433.53;;;17.31;100.00
57068;BME280;43391;47.448;18.904;2023-07-31T01:45:47;99438.56;;;17.23;100.00
57068;BME280;43391;47.448;18.904;2023-07-31T01:48:12;99431.91;;;17.19;100.00
57068;BME280;43391;47.448;18.904;2023-07-31T01:50:37;99423.69;;;17.12;100.00
57068;BME280;43391;47.448;18.904;2023-07-31T01:53:03;99424.91;;;17.08;100.00
57068;BME280;43391;47.448;18.904;2023-07-31T01:55:28;99423.94;;;17.09;100.00
57068;BME280;43391;47.448;18.904;2023-07-31T01:57:53;99422.41;;;17.06;100.00
57068;BME280;43391;47.448;18.904;2023-07-31T02:00:19;99423.00;;;17.10;100.00
57068;BME280;43391;47.448;18.904;2023-07-31T02:02:44;99423.00;;;17.10;100.00
57068;BME280;43391;47.448;18.904;2023-07-31T02:05:09;99426.31;;;17.12;100.00
57068;BME280;43391;47.448;18.904;2023-07-31T02:07:35;99435.03;;;17.12;100.00
57068;BME280;43391;47.448;18.904;2023-07-31T02:10:00;99428.72;;;17.15;100.00
57068;BME280;43391;47.448;18.904;2023-07-31T02:12:26;99425.00;;;17.18;100.00
57068;BME280;43391;47.448;18.904;2023-07-31T02:14:51;99427.47;;;17.31;100.00
57068;BME280;43391;47.448;18.904;2023-07-31T02:17:16;99428.31;;;17.20;100.00
57068;BME280;43391;47.448;18.904;2023-07-31T02:19:42;99439.66;;;17.20;100.00
57068;BME280;43391;47.448;18.904;2023-07-31T02:22:07;99433.44;;;17.21;100.00
57068;BME280;43391;47.448;18.904;2023-07-31T02:24:32;99435.22;;;17.21;100.00
57068;BME280;43391;47.448;18.904;2023-07-31T02:26:58;99434.88;;;17.14;100.00
57068;BME280;43391;47.448;18.904;2023-07-31T02:29:23;99437.28;;;17.17;100.00
57068;BME280;43391;47.448;18.904;2023-07-31T02:31:48;99444.28;;;17.17;100.00
57068;BME280;43391;47.448;18.904;2023-07-31T02:34:14;99451.47;;;17.15;100.00
57068;BME280;43391;47.448;18.904;2023-07-31T02:36:39;99447.31;;;17.12;100.00
57068;BME280;43391;47.448;18.904;2023-07-31T02:39:04;99442.06;;;17.12;100.00
57068;BME280;43391;47.448;18.904;2023-07-31T02:41:30;99448.16;;;17.12;100.00
57068;BME280;43391;47.448;18.904;2023-07-31T02:43:55;99451.00;;;17.09;100.00
57068;BME280;43391;47.448;18.904;2023-07-31T02:46:21;99464.22;;;17.08;100.00
57068;BME280;43391;47.448;18.904;2023-07-31T02:48:49;99467.44;;;17.00;100.00
57068;BME280;43391;47.448;18.904;2023-07-31T02:51:14;99467.94;;;16.94;100.00
57068;BME280;43391;47.448;18.904;2023-07-31T02:53:40;99466.84;;;16.96;100.00
57068;BME280;43391;47.448;18.904;2023-07-31T02:56:05;99456.38;;;16.96;100.00
57068;BME280;43391;47.448;18.904;2023-07-31T02:58:31;99471.41;;;16.94;100.00
57068;BME280;43391;47.448;18.904;2023-07-31T03:00:58;99464.47;;;16.93;100.00
57068;BME280;43391;47.448;18.904;2023-07-31T03:03:23;99459.94;;;16.95;100.00
57068;BME280;43391;47.448;18.904;2023-07-31T03:05:49;99469.47;;;16.96;100.00
57068;BME280;43391;47.448;18.904;2023-07-31T03:08:14;99467.81;;;16.95;100.00
57068;BME280;43391;47.448;18.904;2023-07-31T03:10:39;99477.09;;;16.99;100.00
57068;BME280;43391;47.448;18.904;2023-07-31T03:13:05;99487.59;;;16.99;100.00
57068;BME280;43391;47.448;18.904;2023-07-31T03:15:30;99490.81;;;17.03;100.00
57068;BME280;43391;47.448;18.904;2023-07-31T03:17:56;99482.81;;;16.93;100.00
57068;BME280;43391;47.448;18.904;2023-07-31T03:20:21;99489.47;;;16.97;100.00
57068;BME280;43391;47.448;18.904;2023-07-31T03:22:46;99493.06;;;16.96;100.00
57068;BME280;43391;47.448;18.904;2023-07-31T03:25:12;99488.66;;;16.97;100.00
57068;BME280;43391;47.448;18.904;2023-07-31T03:27:37;99492.22;;;16.96;100.00
57068;BME280;43391;47.448;18.904;2023-07-31T03:30:03;99494.59;;;16.99;100.00
57068;BME280;43391;47.448;18.904;2023-07-31T03:32:29;99492.22;;;16.96;100.00
57068;BME280;43391;47.448;18.904;2023-07-31T03:34:54;99494.84;;;16.96;100.00
57068;BME280;43391;47.448;18.904;2023-07-31T03:37:19;99496.75;;;16.94;100.00
57068;BME280;43391;47.448;18.904;2023-07-31T03:39:44;99503.78;;;16.93;100.00
57068;BME280;43391;47.448;18.904;2023-07-31T03:42:10;99499.63;;;16.91;100.00
57068;BME280;43391;47.448;18.904;2023-07-31T03:44:35;99499.28;;;16.84;100.00
57068;BME280;43391;47.448;18.904;2023-07-31T03:47:01;99495.22;;;16.80;100.00
57068;BME280;43391;47.448;18.904;2023-07-31T03:49:26;99502.97;;;16.81;100.00
57068;BME280;43391;47.448;18.904;2023-07-31T03:51:51;99500.81;;;16.75;100.00
57068;BME280;43391;47.448;18.904;2023-07-31T03:54:17;99498.34;;;16.73;100.00
57068;BME280;43391;47.448;18.904;2023-07-31T03:56:42;99497.84;;;16.80;100.00
57068;BME280;43391;47.448;18.904;2023-07-31T03:59:07;99493.44;;;16.80;100.00
57068;BME280;43391;47.448;18.904;2023-07-31T04:01:33;99500.47;;;16.80;100.00
57068;BME280;43391;47.448;18.904;2023-07-31T04:03:58;99501.19;;;16.82;100.00
57068;BME280;43391;47.448;18.904;2023-07-31T04:06:23;99501.06;;;16.83;100.00
57068;BME280;43391;47.448;18.904;2023-07-31T04:08:49;99497.75;;;16.81;100.00
57068;BME280;43391;47.448;18.904;2023-07-31T04:11:14;99494.53;;;16.89;100.00
57068;BME280;43391;47.448;18.904;2023-07-31T04:13:40;99485.81;;;16.89;100.00
57068;BME280;43391;47.448;18.904;2023-07-31T04:16:05;99500.34;;;16.93;100.00
57068;BME280;43391;47.448;18.904;2023-07-31T04:18:31;99498.53;;;16.93;100.00
57068;BME280;43391;47.448;18.904;2023-07-31T04:20:57;99496.53;;;16.97;100.00
57068;BME280;43391;47.448;18.904;2023-07-31T04:23:26;99491.16;;;16.98;100.00
57068;BME280;43391;47.448;18.904;2023-07-31T04:25:51;99488.66;;;16.97;100.00
57068;BME280;43391;47.448;18.904;2023-07-31T04:28:17;99496.38;;;16.98;100.00
57068;BME280;43391;47.448;18.904;2023-07-31T04:30:42;99494.72;;;16.97;100.00
57068;BME280;43391;47.448;18.904;2023-07-31T04:33:08;99492.00;;;16.99;100.00
57068;BME280;43391;47.448;18.904;2023-07-31T04:35:33;99498.44;;;17.06;100.00
57068;BME280;43391;47.448;18.904;2023-07-31T04:37:58;99504.03;;;17.13;100.00
57068;BME280;43391;47.448;18.904;2023-07-31T04:40:24;99494.38;;;17.13;100.00
57068;BME280;43391;47.448;18.904;2023-07-31T04:42:49;99494.28;;;17.15;100.00
57068;BME280;43391;47.448;18.904;2023-07-31T04:45:14;99493.41;;;17.15;100.00
57068;BME280;43391;47.448;18.904;2023-07-31T04:47:40;99490.22;;;17.11;100.00
57068;BME280;43391;47.448;18.904;2023-07-31T04:50:06;99497.81;;;17.14;100.00
57068;BME280;43391;47.448;18.904;2023-07-31T04:52:31;99500.31;;;17.16;100.00
57068;BME280;43391;47.448;18.904;2023-07-31T04:54:56;99502.59;;;17.20;100.00
57068;BME280;43391;47.448;18.904;2023-07-31T04:57:22;99504.84;;;17.25;100.00
57068;BME280;43391;47.448;18.904;2023-07-31T04:59:47;99499.97;;;17.20;100.00
57068;BME280;43391;47.448;18.904;2023-07-31T05:02:12;99507.84;;;17.20;100.00
57068;BME280;43391;47.448;18.904;2023-07-31T05:04:38;99500.09;;;17.19;100.00
57068;BME280;43391;47.448;18.904;2023-07-31T05:07:04;99500.69;;;17.22;100.00
57068;BME280;43391;47.448;18.904;2023-07-31T05:09:29;99496.00;;;17.26;100.00
57068;BME280;43391;47.448;18.904;2023-07-31T05:11:55;99490.41;;;17.31;100.00
57068;BME280;43391;47.448;18.904;2023-07-31T05:14:20;99497.22;;;17.33;100.00
57068;BME280;43391;47.448;18.904;2023-07-31T05:16:45;99500.13;;;17.40;100.00
57068;BME280;43391;47.448;18.904;2023-07-31T05:19:11;99488.22;;;17.47;97.98
57068;BME280;43391;47.448;18.904;2023-07-31T05:21:36;99479.84;;;17.53;98.47
57068;BME280;43391;47.448;18.904;2023-07-31T05:24:02;99477.91;;;17.56;98.13
57068;BME280;43391;47.448;18.904;2023-07-31T05:26:27;99491.59;;;17.59;97.58
57068;BME280;43391;47.448;18.904;2023-07-31T05:28:53;99490.91;;;17.57;97.29
57068;BME280;43391;47.448;18.904;2023-07-31T05:31:18;99486.84;;;17.53;95.64
57068;BME280;43391;47.448;18.904;2023-07-31T05:33:44;99488.41;;;17.56;96.65
57068;BME280;43391;47.448;18.904;2023-07-31T05:36:09;99488.34;;;17.67;95.71
57068;BME280;43391;47.448;18.904;2023-07-31T05:38:34;99486.38;;;17.80;93.99
57068;BME280;43391;47.448;18.904;2023-07-31T05:41:00;99486.31;;;17.92;93.95
57068;BME280;43391;47.448;18.904;2023-07-31T05:43:25;99496.59;;;17.95;93.63
57068;BME280;43391;47.448;18.904;2023-07-31T05:45:51;99492.31;;;17.94;92.75
57068;BME280;43391;47.448;18.904;2023-07-31T05:48:16;99490.25;;;17.98;92.30
57068;BME280;43391;47.448;18.904;2023-07-31T05:50:43;99492.03;;;17.97;92.02
57068;BME280;43391;47.448;18.904;2023-07-31T05:53:08;99502.63;;;18.07;91.59
57068;BME280;43391;47.448;18.904;2023-07-31T05:55:35;99498.97;;;18.19;90.07
57068;BME280;43391;47.448;18.904;2023-07-31T05:58:00;99497.69;;;18.35;88.97
57068;BME280;43391;47.448;18.904;2023-07-31T06:00:26;99497.47;;;18.48;88.28
57068;BME280;43391;47.448;18.904;2023-07-31T06:02:52;99502.50;;;18.61;86.79
57068;BME280;43391;47.448;18.904;2023-07-31T06:05:18;99498.78;;;18.64;85.90
57068;BME280;43391;47.448;18.904;2023-07-31T06:07:43;99503.50;;;18.70;86.86
57068;BME280;43391;47.448;18.904;2023-07-31T06:10:08;99506.56;;;18.75;86.26
57068;BME280;43391;47.448;18.904;2023-07-31T06:12:35;99509.81;;;18.89;85.46
57068;BME280;43391;47.448;18.904;2023-07-31T06:15:01;99509.72;;;19.10;85.92
57068;BME280;43391;47.448;18.904;2023-07-31T06:17:28;99512.28;;;19.31;84.18
57068;BME280;43391;47.448;18.904;2023-07-31T06:19:54;99516.44;;;19.44;82.96
57068;BME280;43391;47.448;18.904;2023-07-31T06:22:19;99514.66;;;19.54;81.76
57068;BME280;43391;47.448;18.904;2023-07-31T06:24:45;99510.78;;;19.58;80.90
57068;BME280;43391;47.448;18.904;2023-07-31T06:27:11;99515.06;;;19.59;79.81
57068;BME280;43391;47.448;18.904;2023-07-31T06:29:36;99519.34;;;19.50;79.92
57068;BME280;43391;47.448;18.904;2023-07-31T06:32:02;99509.50;;;19.43;80.60
57068;BME280;43391;47.448;18.904;2023-07-31T06:34:28;99518.78;;;19.37;80.64
57068;BME280;43391;47.448;18.904;2023-07-31T06:36:55;99507.28;;;19.28;80.90
57068;BME280;43391;47.448;18.904;2023-07-31T06:39:21;99508.38;;;19.16;80.97
57068;BME280;43391;47.448;18.904;2023-07-31T06:41:46;99514.88;;;19.11;82.55
57068;BME280;43391;47.448;18.904;2023-07-31T06:44:11;99516.22;;;19.06;83.80
57068;BME280;43391;47.448;18.904;2023-07-31T06:46:37;99532.25;;;19.03;83.83
57068;BME280;43391;47.448;18.904;2023-07-31T06:49:03;99521.13;;;18.89;82.26
57068;BME280;43391;47.448;18.904;2023-07-31T06:51:28;99529.25;;;18.76;82.03
57068;BME280;43391;47.448;18.904;2023-07-31T06:53:53;99524.84;;;18.77;84.76
57068;BME280;43391;47.448;18.904;2023-07-31T06:56:19;99530.91;;;18.77;83.78
57068;BME280;43391;47.448;18.904;2023-07-31T06:58:44;99537.25;;;18.75;84.93
57068;BME280;43391;47.448;18.904;2023-07-31T07:01:09;99551.38;;;18.73;85.44
57068;BME280;43391;47.448;18.904;2023-07-31T07:03:35;99539.06;;;18.74;85.26
57068;BME280;43391;47.448;18.904;2023-07-31T07:06:00;99544.78;;;18.79;84.58
57068;BME280;43391;47.448;18.904;2023-07-31T07:08:26;99544.00;;;18.89;85.10
57068;BME280;43391;47.448;18.904;2023-07-31T07:10:51;99546.75;;;18.97;84.67
57068;BME280;43391;47.448;18.904;2023-07-31T07:13:16;99545.47;;;19.22;86.38
57068;BME280;43391;47.448;18.904;2023-07-31T07:15:47;99552.47;;;19.53;82.33
57068;BME280;43391;47.448;18.904;2023-07-31T07:18:13;99551.66;;;19.72;77.65
57068;BME280;43391;47.448;18.904;2023-07-31T07:20:39;99554.97;;;19.94;77.75
57068;BME280;43391;47.448;18.904;2023-07-31T07:23:04;99550.00;;;20.11;76.96
57068;BME280;43391;47.448;18.904;2023-07-31T07:25:29;99555.41;;;20.09;73.73
57068;BME280;43391;47.448;18.904;2023-07-31T07:27:55;99553.59;;;20.10;75.28
57068;BME280;43391;47.448;18.904;2023-07-31T07:30:20;99554.41;;;20.20;75.19
57068;BME280;43391;47.448;18.904;2023-07-31T07:32:45;99562.28;;;20.30;74.25
57068;BME280;43391;47.448;18.904;2023-07-31T07:35:11;99564.97;;;20.20;75.50
57068;BME280;43391;47.448;18.904;2023-07-31T07:37:36;99567.72;;;19.89;74.06
57068;BME280;43391;47.448;18.904;2023-07-31T07:40:02;99556.06;;;19.62;75.92
57068;BME280;43391;47.448;18.904;2023-07-31T07:42:28;99557.56;;;19.35;75.07
57068;BME280;43391;47.448;18.904;2023-07-31T07:44:53;99550.50;;;19.35;76.88
57068;BME280;43391;47.448;18.904;2023-07-31T07:47:19;99554.25;;;19.52;77.18
57068;BME280;43391;47.448;18.904;2023-07-31T07:49:44;99560.25;;;19.64;76.61
57068;BME280;43391;47.448;18.904;2023-07-31T07:52:09;99564.25;;;19.78;74.18
57068;BME280;43391;47.448;18.904;2023-07-31T07:54:35;99554.72;;;19.97;75.77
57068;BME280;43391;47.448;18.904;2023-07-31T07:57:00;99554.16;;;20.23;73.01
57068;BME280;43391;47.448;18.904;2023-07-31T07:59:25;99553.41;;;20.41;71.38
57068;BME280;43391;47.448;18.904;2023-07-31T08:01:51;99551.13;;;20.56;70.18
57068;BME280;43391;47.448;18.904;2023-07-31T08:04:16;99553.56;;;20.77;70.26
57068;BME280;43391;47.448;18.904;2023-07-31T08:06:41;99553.81;;;20.94;70.35
57068;BME280;43391;47.448;18.904;2023-07-31T08:09:07;99552.06;;;21.13;69.20
57068;BME280;43391;47.448;18.904;2023-07-31T08:11:34;99557.28;;;21.22;66.03
57068;BME280;43391;47.448;18.904;2023-07-31T08:13:59;99554.50;;;21.24;65.32
57068;BME280;43391;47.448;18.904;2023-07-31T08:16:24;99562.94;;;21.28;65.19
57068;BME280;43391;47.448;18.904;2023-07-31T08:18:50;99553.88;;;21.30;64.11
57068;BME280;43391;47.448;18.904;2023-07-31T08:21:15;99560.28;;;21.28;64.83
57068;BME280;43391;47.448;18.904;2023-07-31T08:23:41;99562.06;;;21.37;66.31
57068;BME280;43391;47.448;18.904;2023-07-31T08:26:06;99562.97;;;21.46;65.90
57068;BME280;43391;47.448;18.904;2023-07-31T08:28:32;99559.34;;;21.47;64.57
57068;BME280;43391;47.448;18.904;2023-07-31T08:30:57;99557.16;;;21.60;66.86
57068;BME280;43391;47.448;18.904;2023-07-31T08:33:23;99564.56;;;21.75;64.68
57068;BME280;43391;47.448;18.904;2023-07-31T08:35:48;99559.47;;;21.92;65.51
57068;BME280;43391;47.448;18.904;2023-07-31T08:38:14;99569.16;;;22.09;64.23
57068;BME280;43391;47.448;18.904;2023-07-31T08:40:39;99568.69;;;22.14;63.48
57068;BME280;43391;47.448;18.904;2023-07-31T08:43:05;99564.16;;;22.24;63.92
57068;BME280;43391;47.448;18.904;2023-07-31T08:45:32;99555.56;;;22.22;62.14
57068;BME280;43391;47.448;18.904;2023-07-31T08:47:58;99551.63;;;22.26;63.69
57068;BME280;43391;47.448;18.904;2023-07-31T08:50:24;99566.22;;;22.39;62.95
57068;BME280;43391;47.448;18.904;2023-07-31T08:55:16;99562.75;;;22.38;62.35
57068;BME280;43391;47.448;18.904;2023-07-31T08:57:42;99566.38;;;22.37;61.05
57068;BME280;43391;47.448;18.904;2023-07-31T09:00:09;99565.38;;;22.38;60.65
57068;BME280;43391;47.448;18.904;2023-07-31T09:02:45;99566.00;;;22.32;59.47
57068;BME280;43391;47.448;18.904;2023-07-31T09:05:11;99572.56;;;22.20;61.17
57068;BME280;43391;47.448;18.904;2023-07-31T09:07:37;99553.41;;;22.26;62.07
57068;BME280;43391;47.448;18.904;2023-07-31T09:10:04;99546.22;;;22.36;63.12
57068;BME280;43391;47.448;18.904;2023-07-31T09:12:30;99549.88;;;22.43;62.81
57068;BME280;43391;47.448;18.904;2023-07-31T09:14:59;99544.41;;;22.63;62.96
57068;BME280;43391;47.448;18.904;2023-07-31T09:17:36;99550.28;;;22.83;62.03
57068;BME280;43391;47.448;18.904;2023-07-31T09:20:20;99542.28;;;22.67;58.71
57068;BME280;43391;47.448;18.904;2023-07-31T09:22:47;99545.28;;;22.72;60.77
57068;BME280;43391;47.448;18.904;2023-07-31T09:25:20;99542.47;;;22.74;61.42
57068;BME280;43391;47.448;18.904;2023-07-31T09:27:52;99536.19;;;22.66;60.92
57068;BME280;43391;47.448;18.904;2023-07-31T09:30:19;99535.19;;;22.67;59.92
57068;BME280;43391;47.448;18.904;2023-07-31T09:32:46;99538.41;;;22.88;61.75
57068;BME280;43391;47.448;18.904;2023-07-31T09:35:22;99533.78;;;22.90;59.17
57068;BME280;43391;47.448;18.904;2023-07-31T09:37:55;99539.19;;;22.80;59.41
57068;BME280;43391;47.448;18.904;2023-07-31T09:40:35;99531.94;;;22.82;59.24
57068;BME280;43391;47.448;18.904;2023-07-31T09:43:03;99530.25;;;22.73;58.69
57068;BME280;43391;47.448;18.904;2023-07-31T09:45:29;99530.72;;;22.68;57.68
57068;BME280;43391;47.448;18.904;2023-07-31T09:47:56;99523.66;;;22.77;59.39
57068;BME280;43391;47.448;18.904;2023-07-31T09:50:23;99527.84;;;22.96;60.13
57068;BME280;43391;47.448;18.904;2023-07-31T09:52:49;99524.91;;;23.07;57.12
57068;BME280;43391;47.448;18.904;2023-07-31T09:55:15;99527.25;;;23.19;58.06
57068;BME280;43391;47.448;18.904;2023-07-31T09:57:42;99523.69;;;23.37;56.17
57068;BME280;43391;47.448;18.904;2023-07-31T10:00:11;99533.28;;;23.38;58.03
57068;BME280;43391;47.448;18.904;2023-07-31T10:02:38;99534.94;;;23.39;55.36
57068;BME280;43391;47.448;18.904;2023-07-31T10:05:04;99534.44;;;23.35;55.78
57068;BME280;43391;47.448;18.904;2023-07-31T10:07:31;99531.00;;;23.43;58.35
57068;BME280;43391;47.448;18.904;2023-07-31T10:10:00;99542.41;;;23.52;55.67
57068;BME280;43391;47.448;18.904;2023-07-31T10:12:26;99533.13;;;23.47;55.61
57068;BME280;43391;47.448;18.904;2023-07-31T10:14:55;99533.97;;;23.48;54.67
57068;BME280;43391;47.448;18.904;2023-07-31T10:17:22;99526.34;;;23.45;54.33
57068;BME280;43391;47.448;18.904;2023-07-31T10:19:49;99534.78;;;23.48;55.32
57068;BME280;43391;47.448;18.904;2023-07-31T10:22:15;99525.19;;;23.64;56.84
57068;BME280;43391;47.448;18.904;2023-07-31T10:24:43;99530.50;;;23.72;55.69
57068;BME280;43391;47.448;18.904;2023-07-31T10:27:09;99527.72;;;23.74;53.53
57068;BME280;43391;47.448;18.904;2023-07-31T10:29:36;99533.81;;;23.83;54.12
57068;BME280;43391;47.448;18.904;2023-07-31T10:32:04;99530.50;;;23.72;53.37
57068;BME280;43391;47.448;18.904;2023-07-31T10:34:36;99538.28;;;23.82;55.24
57068;BME280;43391;47.448;18.904;2023-07-31T10:37:29;99530.00;;;23.85;53.53
57068;BME280;43391;47.448;18.904;2023-07-31T10:40:03;99518.75;;;24.00;55.06
57068;BME280;43391;47.448;18.904;2023-07-31T10:42:36;99521.91;;;24.12;54.13
57068;BME280;43391;47.448;18.904;2023-07-31T10:45:08;99517.28;;;24.14;53.57
57068;BME280;43391;47.448;18.904;2023-07-31T10:47:38;99510.47;;;24.11;52.34
57068;BME280;43391;47.448;18.904;2023-07-31T10:50:20;99508.63;;;24.28;53.77
57068;BME280;43391;47.448;18.904;2023-07-31T10:52:51;99502.44;;;24.45;52.58
57068;BME280;43391;47.448;18.904;2023-07-31T10:57:53;99510.16;;;24.71;50.23
57068;BME280;43391;47.448;18.904;2023-07-31T11:00:19;99514.63;;;24.71;49.74
57068;BME280;43391;47.448;18.904;2023-07-31T11:03:07;99499.66;;;24.78;48.79
57068;BME280;43391;47.448;18.904;2023-07-31T11:08:23;99506.44;;;24.80;49.73
57068;BME280;43391;47.448;18.904;2023-07-31T11:11:09;99491.34;;;24.89;47.30
57068;BME280;43391;47.448;18.904;2023-07-31T11:13:41;99500.78;;;24.92;46.48
57068;BME280;43391;47.448;18.904;2023-07-31T11:16:07;99486.22;;;24.88;46.19
57068;BME280;43391;47.448;18.904;2023-07-31T11:18:32;99490.22;;;24.84;46.29
57068;BME280;43391;47.448;18.904;2023-07-31T11:20:58;99481.53;;;24.90;47.02
57068;BME280;43391;47.448;18.904;2023-07-31T11:23:23;99478.56;;;24.93;47.12
57068;BME280;43391;47.448;18.904;2023-07-31T11:25:49;99487.13;;;25.03;46.64
57068;BME280;43391;47.448;18.904;2023-07-31T11:28:16;99484.78;;;25.08;45.40
57068;BME280;43391;47.448;18.904;2023-07-31T11:30:43;99484.38;;;25.20;45.30
57068;BME280;43391;47.448;18.904;2023-07-31T11:33:11;99494.22;;;25.11;43.99
57068;BME280;43391;47.448;18.904;2023-07-31T11:35:46;99480.47;;;25.07;44.55
57068;BME280;43391;47.448;18.904;2023-07-31T11:38:30;99480.94;;;25.11;45.31
57068;BME280;43391;47.448;18.904;2023-07-31T11:40:58;99480.06;;;25.19;45.44
57068;BME280;43391;47.448;18.904;2023-07-31T11:43:24;99484.00;;;25.23;46.25
57068;BME280;43391;47.448;18.904;2023-07-31T11:45:51;99479.97;;;25.27;44.68
57068;BME280;43391;47.448;18.904;2023-07-31T11:48:24;99480.06;;;25.42;45.44
57068;BME280;43391;47.448;18.904;2023-07-31T11:50:54;99483.97;;;25.55;45.43
57068;BME280;43391;47.448;18.904;2023-07-31T11:53:34;99478.00;;;25.53;43.42
57068;BME280;43391;47.448;18.904;2023-07-31T11:56:01;99478.66;;;25.55;43.28
57068;BME280;43391;47.448;18.904;2023-07-31T11:58:30;99473.19;;;25.48;42.77
57068;BME280;43391;47.448;18.904;2023-07-31T12:00:56;99467.59;;;25.43;43.32
57068;BME280;43391;47.448;18.904;2023-07-31T12:03:23;99466.88;;;25.49;42.97
57068;BME280;43391;47.448;18.904;2023-07-31T12:05:49;99468.44;;;25.67;43.06
57068;BME280;43391;47.448;18.904;2023-07-31T12:08:16;99462.94;;;25.68;42.31
57068;BME280;43391;47.448;18.904;2023-07-31T12:10:41;99465.41;;;25.70;42.54
57068;BME280;43391;47.448;18.904;2023-07-31T12:13:11;99454.75;;;25.70;43.04
57068;BME280;43391;47.448;18.904;2023-07-31T12:15:45;99461.56;;;25.72;41.24
57068;BME280;43391;47.448;18.904;2023-07-31T12:18:13;99447.91;;;25.76;43.89
57068;BME280;43391;47.448;18.904;2023-07-31T12:23:07;99453.34;;;25.82;44.03
57068;BME280;43391;47.448;18.904;2023-07-31T12:25:32;99458.84;;;25.81;43.80
57068;BME280;43391;47.448;18.904;2023-07-31T12:28:04;99456.63;;;25.84;42.84
57068;BME280;43391;47.448;18.904;2023-07-31T12:30:34;99460.13;;;25.85;42.68
57068;BME280;43391;47.448;18.904;2023-07-31T12:33:04;99452.88;;;25.94;42.89
57068;BME280;43391;47.448;18.904;2023-07-31T12:35:37;99448.22;;;25.96;44.13
57068;BME280;43391;47.448;18.904;2023-07-31T12:38:03;99447.75;;;25.77;42.70
57068;BME280;43391;47.448;18.904;2023-07-31T12:40:29;99441.31;;;25.86;43.34
57068;BME280;43391;47.448;18.904;2023-07-31T12:42:54;99437.13;;;25.92;42.84
57068;BME280;43391;47.448;18.904;2023-07-31T12:45:19;99433.44;;;25.93;43.18
57068;BME280;43391;47.448;18.904;2023-07-31T12:47:46;99441.69;;;25.98;43.71
57068;BME280;43391;47.448;18.904;2023-07-31T12:50:11;99426.03;;;26.04;42.98
57068;BME280;43391;47.448;18.904;2023-07-31T12:52:37;99424.75;;;26.14;42.94
57068;BME280;43391;47.448;18.904;2023-07-31T12:55:02;99431.34;;;26.19;45.06
57068;BME280;43391;47.448;18.904;2023-07-31T12:57:27;99427.31;;;26.23;42.67
57068;BME280;43391;47.448;18.904;2023-07-31T12:59:53;99426.66;;;26.21;43.02
57068;BME280;43391;47.448;18.904;2023-07-31T13:02:18;99425.94;;;26.12;41.55